createdAt,value
2018-08-06T00:01:23.603Z,6.30
2018-08-06T00:03:52.877Z,5.97
2018-08-06T00:06:22.079Z,5.70
2018-08-06T00:08:51.295Z,6.70
2018-08-06T00:11:20.557Z,6.23
2018-08-06T00:13:49.773Z,5.80
2018-08-06T00:16:18.927Z,6.00
2018-08-06T00:18:48.207Z,6.10
2018-08-06T00:21:18.434Z,6.60
2018-08-06T00:23:47.589Z,6.20
2018-08-06T00:26:16.841Z,6.10
2018-08-06T00:28:46.005Z,5.70
2018-08-06T00:31:16.093Z,6.20
2018-08-06T00:33:45.366Z,5.60
2018-08-06T00:36:14.669Z,6.20
2018-08-06T00:38:43.824Z,6.00
2018-08-06T00:41:13.087Z,5.40
2018-08-06T00:43:42.327Z,6.10
2018-08-06T00:46:11.509Z,5.97
2018-08-06T00:48:41.600Z,6.33
2018-08-06T00:51:11.592Z,6.30
2018-08-06T00:53:40.483Z,6.67
2018-08-06T00:56:10.134Z,6.20
2018-08-06T00:58:39.597Z,6.10
2018-08-06T01:01:09.389Z,5.67
2018-08-06T01:03:38.685Z,6.00
2018-08-06T01:06:07.958Z,5.70
2018-08-06T01:08:37.209Z,5.43
2018-08-06T01:11:06.481Z,5.93
2018-08-06T01:13:35.651Z,5.50
2018-08-06T01:16:04.953Z,5.93
2018-08-06T01:18:34.138Z,5.90
2018-08-06T01:21:03.452Z,5.70
2018-08-06T01:23:32.900Z,5.40
2018-08-06T01:26:02.093Z,5.60
2018-08-06T01:28:31.304Z,6.20
2018-08-06T01:31:00.531Z,5.20
2018-08-06T01:33:30.310Z,5.37
2018-08-06T01:35:59.501Z,5.30
2018-08-06T01:38:28.795Z,5.20
2018-08-06T01:40:57.967Z,5.13
2018-08-06T01:43:27.150Z,5.27
2018-08-06T01:45:56.320Z,6.07
2018-08-06T01:48:26.602Z,5.63
2018-08-06T01:50:55.804Z,5.73
2018-08-06T01:53:25.947Z,5.60
2018-08-06T01:55:54.737Z,5.53
2018-08-06T01:58:23.806Z,5.60
2018-08-06T02:00:52.930Z,5.50
2018-08-06T02:03:23.543Z,5.53
2018-08-06T02:05:52.745Z,5.60
2018-08-06T02:08:22.193Z,5.40
2018-08-06T02:10:51.238Z,5.80
2018-08-06T02:13:20.392Z,5.57
2018-08-06T02:15:49.614Z,5.77
2018-08-06T02:18:18.896Z,5.70
2018-08-06T02:20:48.737Z,5.50
2018-08-06T02:23:18.755Z,6.37
2018-08-06T02:25:49.144Z,5.57
2018-08-06T02:28:18.303Z,5.67
2018-08-06T02:30:47.538Z,5.13
2018-08-06T02:33:16.740Z,5.57
2018-08-06T02:35:46.010Z,5.10
2018-08-06T02:38:15.239Z,5.50
2018-08-06T02:40:44.405Z,5.00
2018-08-06T02:43:13.617Z,5.37
2018-08-06T02:45:42.906Z,5.00
2018-08-06T02:48:12.171Z,4.73
2018-08-06T02:50:41.403Z,4.97
2018-08-06T02:53:10.599Z,5.40
2018-08-06T02:55:39.797Z,4.80
2018-08-06T02:58:09.234Z,4.93
2018-08-06T03:00:38.463Z,4.73
2018-08-06T03:03:07.638Z,5.27
2018-08-06T03:05:36.946Z,4.73
2018-08-06T03:08:06.370Z,5.00
2018-08-06T03:10:35.729Z,4.97
2018-08-06T03:13:05.062Z,4.90
2018-08-06T03:15:34.266Z,4.97
2018-08-06T03:18:03.544Z,4.73
2018-08-06T03:20:32.772Z,5.20
2018-08-06T03:23:02.876Z,5.20
2018-08-06T03:25:32.054Z,6.00
2018-08-06T03:28:01.791Z,5.90
2018-08-06T03:30:30.978Z,5.53
2018-08-06T03:33:00.639Z,6.60
2018-08-06T03:35:29.847Z,6.30
2018-08-06T03:37:59.048Z,6.73
2018-08-06T03:40:28.248Z,6.03
2018-08-06T03:42:57.521Z,6.70
2018-08-06T03:45:26.760Z,6.30
2018-08-06T03:47:56.009Z,6.07
2018-08-06T03:50:25.165Z,5.50
2018-08-06T03:52:54.424Z,5.87
2018-08-06T03:55:23.637Z,6.23
2018-08-06T03:57:52.839Z,5.87
2018-08-06T04:00:22.638Z,6.13
2018-08-06T04:02:51.840Z,5.70
2018-08-06T04:05:21.097Z,6.40
2018-08-06T04:07:50.378Z,5.80
2018-08-06T04:10:19.574Z,6.33
2018-08-06T04:12:48.776Z,6.50
2018-08-06T04:15:18.010Z,6.50
2018-08-06T04:17:47.266Z,5.90
2018-08-06T04:20:17.195Z,5.97
2018-08-06T04:22:46.334Z,7.07
2018-08-06T04:25:15.566Z,6.90
2018-08-06T04:27:44.816Z,6.27
2018-08-06T04:30:15.544Z,6.60
2018-08-06T04:32:45.269Z,6.40
2018-08-06T04:35:15.025Z,6.43
2018-08-06T04:37:44.868Z,6.80
2018-08-06T04:40:14.337Z,6.90
2018-08-06T04:42:43.860Z,6.57
2018-08-06T04:45:12.739Z,6.50
2018-08-06T04:47:42.376Z,6.00
2018-08-06T04:50:14.406Z,6.87
2018-08-06T04:52:45.044Z,5.70
2018-08-06T04:55:15.147Z,6.00
2018-08-06T04:57:43.924Z,6.70
2018-08-06T05:00:14.611Z,5.97
2018-08-06T05:02:44.410Z,6.13
2018-08-06T05:05:13.402Z,7.00
2018-08-06T05:07:42.588Z,6.73
2018-08-06T05:10:12.451Z,6.90
2018-08-06T05:12:41.666Z,7.30
2018-08-06T05:15:10.752Z,7.10
2018-08-06T05:17:39.874Z,7.13
2018-08-06T05:20:09.057Z,6.97
2018-08-06T05:22:38.200Z,6.63
2018-08-06T05:25:07.084Z,7.43
2018-08-06T05:27:36.335Z,7.13
2018-08-06T05:30:07.612Z,7.23
2018-08-06T05:32:37.078Z,6.53
2018-08-06T05:35:06.832Z,7.57
2018-08-06T05:37:36.144Z,6.93
2018-08-06T05:40:05.380Z,6.80
2018-08-06T05:42:34.368Z,6.83
2018-08-06T05:45:03.796Z,7.80
2018-08-06T05:47:33.023Z,8.90
2018-08-06T05:50:02.278Z,8.70
2018-08-06T05:52:31.456Z,7.00
2018-08-06T05:55:00.638Z,6.90
2018-08-06T05:57:29.428Z,6.37
2018-08-06T05:59:58.462Z,6.40
2018-08-06T06:02:27.718Z,7.03
2018-08-06T06:04:56.870Z,6.60
2018-08-06T06:07:26.027Z,6.73
2018-08-06T06:09:55.702Z,6.97
2018-08-06T06:12:24.936Z,5.53
2018-08-06T06:14:54.121Z,6.10
2018-08-06T06:17:22.902Z,5.33
2018-08-06T06:19:52.026Z,5.13
2018-08-06T06:22:21.174Z,5.60
2018-08-06T06:24:50.378Z,5.13
2018-08-06T06:27:19.551Z,4.80
2018-08-06T06:29:48.866Z,5.63
2018-08-06T06:32:17.998Z,5.73
2018-08-06T06:34:47.393Z,5.67
2018-08-06T06:37:16.583Z,5.33
2018-08-06T06:39:45.340Z,5.40
2018-08-06T06:42:14.553Z,5.30
2018-08-06T06:44:43.735Z,5.30
2018-08-06T06:47:12.927Z,4.97
2018-08-06T06:49:42.104Z,4.77
2018-08-06T06:52:11.229Z,4.70
2018-08-06T06:54:40.366Z,4.83
2018-08-06T06:57:09.498Z,5.20
2018-08-06T06:59:38.730Z,4.80
2018-08-06T07:02:07.876Z,5.00
2018-08-06T07:04:37.016Z,4.43
2018-08-06T07:07:06.172Z,4.60
2018-08-06T07:09:35.528Z,4.40
2018-08-06T07:12:05.065Z,4.80
2018-08-06T07:14:34.276Z,5.00
2018-08-06T07:17:03.399Z,4.80
2018-08-06T07:19:32.613Z,5.03
2018-08-06T07:22:01.736Z,4.37
2018-08-06T07:24:30.838Z,4.90
2018-08-06T07:27:00.033Z,4.50
2018-08-06T07:29:29.212Z,4.80
2018-08-06T07:31:58.364Z,5.10
2018-08-06T07:34:28.434Z,4.70
2018-08-06T07:36:57.858Z,4.87
2018-08-06T07:39:28.059Z,4.87
2018-08-06T07:41:57.226Z,5.20
2018-08-06T07:44:26.468Z,4.80
2018-08-06T07:46:55.611Z,5.20
2018-08-06T07:49:24.951Z,5.07
2018-08-06T07:51:54.031Z,4.93
2018-08-06T07:54:23.330Z,4.87
2018-08-06T07:56:52.559Z,5.17
2018-08-06T07:59:21.844Z,5.30
2018-08-06T08:01:51.148Z,5.60
2018-08-06T08:04:20.650Z,5.93
2018-08-06T08:06:50.204Z,5.73
2018-08-06T08:09:19.698Z,5.50
2018-08-06T08:11:49.022Z,5.33
2018-08-06T08:14:18.240Z,5.60
2018-08-06T08:16:47.542Z,5.97
2018-08-06T08:19:16.962Z,5.40
2018-08-06T08:21:46.184Z,5.60
2018-08-06T08:24:16.154Z,5.43
2018-08-06T08:26:45.278Z,5.50
2018-08-06T08:29:14.544Z,5.73
2018-08-06T08:31:43.710Z,4.97
2018-08-06T08:34:12.924Z,5.43
2018-08-06T08:36:42.342Z,5.40
2018-08-06T08:39:13.078Z,5.97
2018-08-06T08:41:42.228Z,5.60
2018-08-06T08:44:11.394Z,5.20
2018-08-06T08:46:40.977Z,5.60
2018-08-06T08:49:10.166Z,5.83
2018-08-06T08:51:39.689Z,5.70
2018-08-06T08:54:08.525Z,6.10
2018-08-06T08:56:38.553Z,6.27
2018-08-06T08:59:07.737Z,5.60
2018-08-06T09:01:36.977Z,5.70
2018-08-06T09:04:06.223Z,6.13
2018-08-06T09:06:35.450Z,6.10
2018-08-06T09:09:07.629Z,6.07
2018-08-06T09:11:36.849Z,6.13
2018-08-06T09:14:05.793Z,5.90
2018-08-06T09:16:35.047Z,6.70
2018-08-06T09:19:04.116Z,5.77
2018-08-06T09:21:33.329Z,6.73
2018-08-06T09:24:02.975Z,6.37
2018-08-06T09:26:32.149Z,6.03
2018-08-06T09:29:00.918Z,5.93
2018-08-06T09:31:29.578Z,6.20
2018-08-06T09:33:58.726Z,6.83
2018-08-06T09:36:28.660Z,6.50
2018-08-06T09:38:57.816Z,6.23
2018-08-06T09:41:27.138Z,6.20
2018-08-06T09:43:56.272Z,7.00
2018-08-06T09:46:25.451Z,7.00
2018-08-06T09:48:54.970Z,6.90
2018-08-06T09:51:24.118Z,6.80
2018-08-06T09:53:53.247Z,7.13
2018-08-06T09:56:22.412Z,7.30
2018-08-06T09:58:51.529Z,7.70
2018-08-06T10:01:26.016Z,7.00
2018-08-06T10:03:55.176Z,7.03
2018-08-06T10:06:24.615Z,7.10
2018-08-06T10:08:54.139Z,7.80
2018-08-06T10:11:22.903Z,8.50
2018-08-06T10:13:51.675Z,7.70
2018-08-06T10:16:20.712Z,8.30
2018-08-06T10:18:49.971Z,8.30
2018-08-06T10:21:19.137Z,7.93
2018-08-06T10:23:48.447Z,7.57
2018-08-06T10:26:17.580Z,8.33
2018-08-06T10:28:46.820Z,8.27
2018-08-06T10:31:15.894Z,8.20
2018-08-06T10:33:45.105Z,8.23
2018-08-06T10:36:14.301Z,9.10
2018-08-06T10:38:43.475Z,7.67
2018-08-06T10:41:12.613Z,8.60
2018-08-06T10:43:41.901Z,8.57
2018-08-06T10:46:11.118Z,9.73
2018-08-06T10:48:40.410Z,8.67
2018-08-06T10:51:09.923Z,9.20
2018-08-06T10:53:39.324Z,8.87
2018-08-06T10:56:08.601Z,8.67
2018-08-06T10:58:37.875Z,9.00
2018-08-06T11:01:07.359Z,9.60
2018-08-06T11:03:36.593Z,8.83
2018-08-06T11:06:05.859Z,8.13
2018-08-06T11:08:35.053Z,9.13
2018-08-06T11:11:04.301Z,7.80
2018-08-06T11:13:33.502Z,8.70
2018-08-06T11:16:02.671Z,8.73
2018-08-06T11:18:31.772Z,8.57
2018-08-06T11:21:01.129Z,8.83
2018-08-06T11:23:30.361Z,8.97
2018-08-06T11:25:59.649Z,9.50
2018-08-06T11:28:28.863Z,8.80
2018-08-06T11:30:58.091Z,8.57
2018-08-06T11:33:27.285Z,8.80
2018-08-06T11:35:56.407Z,9.00
2018-08-06T11:38:25.547Z,8.47
2018-08-06T11:40:54.809Z,9.20
2018-08-06T11:43:23.932Z,8.83
2018-08-06T11:45:53.125Z,9.30
2018-08-06T11:48:22.801Z,7.90
2018-08-06T11:50:51.954Z,8.57
2018-08-06T11:53:21.299Z,9.13
2018-08-06T11:55:50.461Z,8.83
2018-08-06T11:58:19.601Z,9.20
2018-08-06T12:00:48.818Z,8.30
2018-08-06T12:03:17.954Z,9.00
2018-08-06T12:05:47.085Z,8.43
2018-08-06T12:08:16.279Z,9.60
2018-08-06T12:10:45.459Z,8.60
2018-08-06T12:13:14.637Z,9.10
2018-08-06T12:15:44.225Z,9.53
2018-08-06T12:18:13.380Z,8.47
2018-08-06T12:20:42.545Z,9.03
2018-08-06T12:23:11.701Z,9.27
2018-08-06T12:25:40.876Z,9.40
2018-08-06T12:28:10.393Z,9.57
2018-08-06T12:30:39.543Z,9.63
2018-08-06T12:33:08.960Z,9.13
2018-08-06T12:35:38.159Z,8.70
2018-08-06T12:38:07.427Z,9.47
2018-08-06T12:40:36.552Z,8.70
2018-08-06T12:43:06.138Z,9.43
2018-08-06T12:45:35.337Z,9.10
2018-08-06T12:48:04.569Z,9.17
2018-08-06T12:50:33.679Z,9.70
2018-08-06T12:53:02.780Z,9.50
2018-08-06T12:55:32.021Z,9.20
2018-08-06T12:58:01.183Z,8.73
2018-08-06T13:00:30.398Z,8.73
2018-08-06T13:02:59.544Z,8.70
2018-08-06T13:05:28.698Z,8.10
2018-08-06T13:07:57.932Z,8.37
2018-08-06T13:10:27.068Z,8.80
2018-08-06T13:12:56.279Z,8.00
2018-08-06T13:15:25.408Z,7.70
2018-08-06T13:17:54.773Z,8.40
2018-08-06T13:20:23.851Z,8.03
2018-08-06T13:22:52.991Z,8.60
2018-08-06T13:25:22.170Z,8.30
2018-08-06T13:27:51.228Z,8.30
2018-08-06T13:30:20.970Z,7.90
2018-08-06T13:32:49.773Z,9.43
2018-08-06T13:35:19.248Z,7.60
2018-08-06T13:37:49.010Z,8.10
2018-08-06T13:40:18.155Z,8.03
2018-08-06T13:42:47.553Z,7.70
2018-08-06T13:45:16.673Z,8.50
2018-08-06T13:47:45.877Z,7.23
2018-08-06T13:50:14.991Z,7.67
2018-08-06T13:52:44.127Z,7.93
2018-08-06T13:55:13.780Z,8.00
2018-08-06T13:57:43.144Z,7.63
2018-08-06T14:00:15.333Z,8.17
2018-08-06T14:02:44.277Z,8.50
2018-08-06T14:05:14.951Z,8.30
2018-08-06T14:07:45.134Z,8.03
2018-08-06T14:10:15.189Z,8.70
2018-08-06T14:12:47.749Z,8.03
2018-08-06T14:15:16.881Z,8.20
2018-08-06T14:17:46.107Z,8.00
2018-08-06T14:20:17.035Z,7.90
2018-08-06T14:22:46.244Z,8.10
2018-08-06T14:25:15.597Z,7.80
2018-08-06T14:27:44.782Z,8.37
2018-08-06T14:30:15.956Z,7.70
2018-08-06T14:32:45.147Z,7.90
2018-08-06T14:35:14.893Z,7.50
2018-08-06T14:37:44.345Z,9.20
2018-08-06T14:40:16.911Z,8.80
2018-08-06T14:42:46.559Z,8.07
2018-08-06T14:45:15.749Z,8.43
2018-08-06T14:47:44.911Z,8.37
2018-08-06T14:50:16.026Z,8.50
2018-08-06T14:52:45.685Z,8.20
2018-08-06T14:55:14.493Z,7.93
2018-08-06T14:57:43.513Z,7.97
2018-08-06T15:00:16.285Z,7.80
2018-08-06T15:02:45.669Z,8.10
2018-08-06T15:05:15.450Z,8.00
2018-08-06T15:07:44.605Z,8.27
2018-08-06T15:10:14.337Z,7.73
2018-08-06T15:12:43.638Z,8.73
2018-08-06T15:15:15.308Z,8.10
2018-08-06T15:17:44.949Z,8.50
2018-08-06T15:20:16.834Z,7.50
2018-08-06T15:22:46.193Z,8.23
2018-08-06T15:25:21.620Z,7.43
2018-08-06T15:27:51.065Z,8.43
2018-08-06T15:30:20.319Z,8.43
2018-08-06T15:32:49.501Z,8.63
2018-08-06T15:35:18.645Z,8.33
2018-08-06T15:37:47.925Z,8.23
2018-08-06T15:40:19.019Z,8.60
2018-08-06T15:42:48.196Z,8.00
2018-08-06T15:45:17.341Z,8.00
2018-08-06T15:47:46.784Z,7.90
2018-08-06T15:50:18.141Z,7.63
2018-08-06T15:52:47.510Z,7.90
2018-08-06T15:55:17.462Z,7.70
2018-08-06T15:57:46.681Z,8.53
2018-08-06T16:00:17.274Z,8.50
2018-08-06T16:02:46.884Z,8.33
2018-08-06T16:05:16.082Z,7.80
2018-08-06T16:07:45.683Z,7.77
2018-08-06T16:10:15.290Z,7.97
2018-08-06T16:12:44.447Z,8.73
2018-08-06T16:15:14.499Z,8.57
2018-08-06T16:17:44.466Z,8.33
2018-08-06T16:20:15.576Z,8.70
2018-08-06T16:22:45.555Z,8.90
2018-08-06T16:25:14.947Z,9.03
2018-08-06T16:27:44.117Z,8.37
2018-08-06T16:30:16.623Z,8.37
2018-08-06T16:32:46.890Z,8.07
2018-08-06T16:35:17.655Z,8.70
2018-08-06T16:37:47.111Z,9.20
2018-08-06T16:40:16.574Z,8.90
2018-08-06T16:42:45.752Z,9.83
2018-08-06T16:45:14.853Z,10.00
2018-08-06T16:50:16.077Z,9.80
2018-08-06T16:52:45.647Z,10.03
2018-08-06T16:55:14.818Z,9.63
2018-08-06T16:57:44.014Z,9.90
2018-08-06T17:00:17.390Z,10.10
2018-08-06T17:02:46.876Z,9.87
2018-08-06T17:05:16.059Z,10.90
2018-08-06T17:07:45.995Z,9.60
2018-08-06T17:10:16.809Z,10.73
2018-08-06T17:12:47.259Z,11.00
2018-08-06T17:15:17.673Z,10.97
2018-08-06T17:17:47.709Z,10.33
2018-08-06T17:20:18.614Z,10.47
2018-08-06T17:22:48.455Z,10.80
2018-08-06T17:25:18.273Z,11.07
2018-08-06T17:27:47.401Z,9.43
2018-08-06T17:30:17.325Z,9.10
2018-08-06T17:32:46.665Z,9.20
2018-08-06T17:35:16.371Z,9.30
2018-08-06T17:37:45.545Z,9.80
2018-08-06T17:40:16.076Z,9.73
2018-08-06T17:42:45.554Z,10.10
2018-08-06T17:45:16.859Z,9.57
2018-08-06T17:47:46.001Z,10.27
2018-08-06T17:50:16.924Z,10.43
2018-08-06T17:52:47.203Z,11.00
2018-08-06T17:55:17.315Z,10.47
2018-08-06T17:57:46.671Z,11.40
2018-08-06T18:00:16.382Z,10.67
2018-08-06T18:02:45.582Z,10.27
2018-08-06T18:05:15.664Z,11.30
2018-08-06T18:07:45.117Z,10.90
2018-08-06T18:10:14.954Z,10.83
2018-08-06T18:12:44.951Z,11.33
2018-08-06T18:15:13.726Z,10.63
2018-08-06T18:17:42.845Z,10.07
2018-08-06T18:20:15.719Z,11.80
2018-08-06T18:22:44.985Z,13.30
2018-08-06T18:25:15.847Z,12.67
2018-08-06T18:27:45.933Z,12.00
2018-08-06T18:30:16.973Z,10.53
2018-08-06T18:32:46.133Z,10.40
2018-08-06T18:35:16.415Z,10.83
2018-08-06T18:37:45.564Z,11.13
2018-08-06T18:40:15.416Z,10.83
2018-08-06T18:42:44.191Z,10.60
2018-08-06T18:45:16.138Z,11.67
2018-08-06T18:47:46.313Z,10.57
2018-08-06T18:50:16.336Z,10.60
2018-08-06T18:52:46.374Z,10.70
2018-08-06T18:55:15.960Z,10.43
2018-08-06T18:57:45.197Z,10.53
2018-08-06T19:00:22.366Z,10.10
2018-08-06T19:02:51.559Z,10.40
2018-08-06T19:05:21.163Z,9.50
2018-08-06T19:07:50.362Z,9.50
2018-08-06T19:10:22.541Z,8.63
2018-08-06T19:12:56.964Z,9.33
2018-08-06T19:15:26.096Z,7.93
2018-08-06T19:18:00.469Z,7.87
2018-08-06T19:20:30.088Z,7.00
2018-08-06T19:22:59.268Z,7.30
2018-08-06T19:25:29.611Z,7.27
2018-08-06T19:27:58.647Z,7.23
2018-08-06T19:30:33.555Z,7.03
2018-08-06T19:33:02.891Z,6.20
2018-08-06T19:35:32.050Z,6.00
2018-08-06T19:38:01.209Z,5.67
2018-08-06T19:40:30.985Z,6.53
2018-08-06T19:43:05.471Z,5.80
2018-08-06T19:45:35.025Z,5.43
2018-08-06T19:48:04.117Z,5.77
2018-08-06T19:50:38.643Z,5.30
2018-08-06T19:53:07.718Z,6.27
2018-08-06T19:55:42.097Z,6.20
2018-08-06T19:58:11.253Z,5.40
2018-08-06T20:00:40.325Z,5.23
2018-08-06T20:03:09.518Z,5.10
2018-08-06T20:05:38.831Z,5.17
2018-08-06T20:08:07.988Z,5.70
2018-08-06T20:10:37.169Z,5.40
2018-08-06T20:13:06.523Z,5.43
2018-08-06T20:15:35.701Z,5.87
2018-08-06T20:18:05.623Z,7.93
2018-08-06T20:20:34.811Z,7.60
2018-08-06T20:23:03.945Z,5.80
2018-08-06T20:25:33.134Z,6.00
2018-08-06T20:28:02.290Z,5.60
2018-08-06T20:30:31.449Z,5.63
2018-08-06T20:33:00.559Z,5.17
2018-08-06T20:35:29.653Z,4.90
2018-08-06T20:37:58.819Z,5.30
2018-08-06T20:40:28.015Z,4.83
2018-08-06T20:42:57.186Z,5.50
2018-08-06T20:45:26.283Z,5.10
2018-08-06T20:47:55.385Z,5.97
2018-08-06T20:50:24.619Z,5.90
2018-08-06T20:52:54.585Z,7.07
2018-08-06T20:55:23.657Z,5.17
2018-08-06T20:57:52.852Z,5.30
2018-08-06T21:00:23.529Z,5.33
2018-08-06T21:02:53.184Z,6.80
2018-08-06T21:05:22.751Z,7.03
2018-08-06T21:07:51.977Z,7.33
2018-08-06T21:10:21.285Z,8.27
2018-08-06T21:12:50.540Z,7.33
2018-08-06T21:15:19.686Z,8.30
2018-08-06T21:17:48.881Z,8.03
2018-08-06T21:20:19.061Z,8.37
2018-08-06T21:22:49.126Z,8.67
2018-08-06T21:25:18.343Z,8.77
2018-08-06T21:27:48.705Z,7.80
2018-08-06T21:30:19.955Z,7.50
2018-08-06T21:32:52.017Z,7.43
2018-08-06T21:35:22.132Z,7.83
2018-08-06T21:37:52.355Z,7.47
2018-08-06T21:40:22.210Z,7.73
2018-08-06T21:42:51.805Z,7.10
2018-08-06T21:45:21.173Z,8.00
2018-08-06T21:47:50.677Z,7.93
2018-08-06T21:50:19.857Z,8.37
2018-08-06T21:52:49.025Z,8.17
2018-08-06T21:55:18.312Z,9.40
2018-08-06T21:57:47.461Z,9.00
2018-08-06T22:00:24.529Z,9.07
2018-08-06T22:02:53.302Z,8.90
2018-08-06T22:05:22.542Z,8.97
2018-08-06T22:07:51.674Z,9.47
2018-08-06T22:10:20.992Z,9.07
2018-08-06T22:12:50.431Z,9.33
2018-08-06T22:15:19.576Z,9.70
2018-08-06T22:17:48.707Z,9.90
2018-08-06T22:20:17.910Z,9.60
2018-08-06T22:22:47.094Z,9.00
2018-08-06T22:25:16.372Z,8.70
2018-08-06T22:27:45.569Z,8.50
2018-08-06T22:30:14.794Z,8.00
2018-08-06T22:32:44.022Z,8.43
2018-08-06T22:35:13.920Z,7.83
2018-08-06T22:37:43.382Z,7.53
2018-08-06T22:40:13.635Z,6.53
2018-08-06T22:42:42.805Z,7.00
2018-08-06T22:45:12.815Z,6.40
2018-08-06T22:47:42.891Z,6.20
2018-08-06T22:50:12.317Z,6.20
2018-08-06T22:52:41.636Z,4.80
2018-08-06T22:55:11.902Z,5.27
2018-08-06T22:57:41.775Z,5.17
2018-08-06T23:00:14.411Z,5.57
2018-08-06T23:02:43.909Z,5.30
2018-08-06T23:05:14.859Z,5.43
2018-08-06T23:07:43.979Z,5.33
2018-08-06T23:10:15.900Z,5.43
2018-08-06T23:12:45.147Z,5.27
2018-08-06T23:15:15.523Z,5.40
2018-08-06T23:17:45.184Z,5.37
2018-08-06T23:20:15.016Z,4.93
2018-08-06T23:22:44.171Z,4.20
2018-08-06T23:25:13.269Z,4.30
2018-08-06T23:27:43.441Z,5.30
2018-08-06T23:30:14.503Z,4.80
2018-08-06T23:32:43.774Z,4.53
2018-08-06T23:35:13.816Z,4.60
2018-08-06T23:37:44.307Z,5.00
2018-08-06T23:40:14.353Z,4.90
2018-08-06T23:42:43.901Z,4.70
2018-08-06T23:45:15.302Z,4.50
2018-08-06T23:47:44.558Z,4.73
2018-08-06T23:50:14.749Z,4.23
2018-08-06T23:52:45.265Z,4.10
2018-08-06T23:55:15.943Z,4.60
2018-08-06T23:57:45.559Z,4.73
